createdAt,value
2018-10-18T00:04:22.375Z,101457.00
2018-10-18T00:10:26.456Z,101473.00
2018-10-18T00:16:29.867Z,101462.00
2018-10-18T00:22:33.480Z,101480.00
2018-10-18T00:28:37.630Z,101487.00
2018-10-18T00:34:41.236Z,101482.00
2018-10-18T00:40:44.735Z,101464.00
2018-10-18T00:46:48.247Z,101474.00
2018-10-18T00:52:51.646Z,101481.00
2018-10-18T00:58:55.110Z,101480.00
2018-10-18T01:04:58.755Z,101499.00
2018-10-18T01:11:02.422Z,101498.00
2018-10-18T01:17:06.669Z,101497.00
2018-10-18T01:23:10.255Z,101505.00
2018-10-18T01:29:14.825Z,101505.00
2018-10-18T01:35:18.490Z,101512.00
2018-10-18T01:41:22.002Z,101518.00
2018-10-18T01:47:26.031Z,101512.00
2018-10-18T01:53:29.977Z,101509.00
2018-10-18T01:59:33.463Z,101502.00
2018-10-18T02:05:37.217Z,101509.00
2018-10-18T02:11:41.434Z,101508.00
2018-10-18T02:17:45.686Z,101516.00
2018-10-18T02:23:49.208Z,101518.00
2018-10-18T02:29:53.536Z,101523.00
2018-10-18T02:35:56.930Z,101518.00
2018-10-18T02:42:00.692Z,101512.00
2018-10-18T02:48:04.462Z,101523.00
2018-10-18T02:54:08.586Z,101514.00
2018-10-18T03:00:11.835Z,101524.00
2018-10-18T03:06:15.550Z,101521.00
2018-10-18T03:12:19.222Z,101514.00
2018-10-18T03:18:22.483Z,101525.00
2018-10-18T03:24:25.910Z,101526.00
2018-10-18T03:30:29.507Z,101525.00
2018-10-18T03:36:34.045Z,101542.00
2018-10-18T03:42:37.686Z,101542.00
2018-10-18T03:48:41.514Z,101544.00
2018-10-18T03:54:44.954Z,101551.00
2018-10-18T04:00:49.243Z,101551.00
2018-10-18T04:06:52.786Z,101552.00
2018-10-18T04:12:57.060Z,101559.00
2018-10-18T04:19:00.792Z,101563.00
2018-10-18T04:25:05.411Z,101569.00
2018-10-18T04:31:09.919Z,101555.00
2018-10-18T04:37:13.341Z,101556.00
2018-10-18T04:43:16.863Z,101565.00
2018-10-18T04:49:20.291Z,101565.00
2018-10-18T04:55:24.028Z,101581.00
2018-10-18T05:01:27.776Z,101571.00
2018-10-18T05:07:31.683Z,101570.00
2018-10-18T05:13:35.197Z,101568.00
2018-10-18T05:19:39.098Z,101576.00
2018-10-18T05:25:44.108Z,101570.00
2018-10-18T05:31:47.776Z,101577.00
2018-10-18T05:37:52.667Z,101583.00
2018-10-18T05:43:56.723Z,101582.00
2018-10-18T05:50:01.321Z,101594.00
2018-10-18T05:56:05.152Z,101602.00
2018-10-18T06:02:08.632Z,101600.00
2018-10-18T06:08:12.095Z,101599.00
2018-10-18T06:14:15.574Z,101599.00
2018-10-18T06:20:20.590Z,101604.00
2018-10-18T06:26:24.090Z,101616.00
2018-10-18T06:32:27.547Z,101617.00
2018-10-18T06:38:31.037Z,101621.00
2018-10-18T06:44:34.737Z,101621.00
2018-10-18T06:50:39.060Z,101631.00
2018-10-18T06:56:42.749Z,101641.00
2018-10-18T07:02:46.318Z,101640.00
2018-10-18T07:08:49.917Z,101638.00
2018-10-18T07:14:53.724Z,101655.00
2018-10-18T07:20:57.262Z,101657.00
2018-10-18T07:27:01.258Z,101654.00
2018-10-18T07:33:04.953Z,101658.00
2018-10-18T07:39:12.143Z,101658.00
2018-10-18T07:45:15.707Z,101676.00
2018-10-18T07:51:19.525Z,101669.00
2018-10-18T07:57:23.025Z,101682.00
2018-10-18T08:03:26.741Z,101688.00
2018-10-18T08:09:30.497Z,101694.00
2018-10-18T08:15:34.360Z,101701.00
2018-10-18T08:21:38.511Z,101696.00
2018-10-18T08:27:47.398Z,101704.00
2018-10-18T08:33:51.116Z,101705.00
2018-10-18T08:39:59.813Z,101704.00
2018-10-18T08:46:04.475Z,101707.00
2018-10-18T08:52:07.967Z,101720.00
2018-10-18T08:58:11.609Z,101716.00
2018-10-18T09:04:15.387Z,101721.00
2018-10-18T09:10:19.136Z,101724.00
2018-10-18T09:16:23.079Z,101725.00
2018-10-18T09:22:26.711Z,101728.00
2018-10-18T09:28:30.194Z,101723.00
2018-10-18T09:34:33.716Z,101721.00
2018-10-18T09:40:37.371Z,101724.00
2018-10-18T09:46:43.461Z,101723.00
2018-10-18T09:52:48.647Z,101723.00
2018-10-18T09:58:52.749Z,101728.00
2018-10-18T10:04:56.533Z,101736.00
2018-10-18T10:10:59.983Z,101728.00
2018-10-18T10:17:03.527Z,101716.00
2018-10-18T10:23:07.226Z,101732.00
2018-10-18T10:29:10.827Z,101732.00
2018-10-18T10:35:14.466Z,101744.00
2018-10-18T10:41:18.428Z,101734.00
2018-10-18T10:47:24.596Z,101730.00
2018-10-18T10:53:28.141Z,101721.00
2018-10-18T10:59:31.759Z,101714.00
2018-10-18T11:05:35.968Z,101723.00
2018-10-18T11:11:39.867Z,101708.00
2018-10-18T11:17:43.438Z,101710.00
2018-10-18T11:23:46.938Z,101710.00
2018-10-18T11:29:50.400Z,101715.00
2018-10-18T11:35:53.936Z,101709.00
2018-10-18T11:41:58.070Z,101707.00
2018-10-18T11:48:02.549Z,101707.00
2018-10-18T11:54:06.238Z,101706.00
2018-10-18T12:00:14.880Z,101696.00
2018-10-18T12:06:18.521Z,101691.00
2018-10-18T12:12:23.309Z,101694.00
2018-10-18T12:18:26.985Z,101701.00
2018-10-18T12:24:31.045Z,101693.00
2018-10-18T12:30:34.462Z,101691.00
2018-10-18T12:36:38.583Z,101692.00
2018-10-18T12:42:43.324Z,101691.00
2018-10-18T12:48:46.913Z,101699.00
2018-10-18T12:54:51.118Z,101707.00
2018-10-18T13:00:54.757Z,101704.00
2018-10-18T13:06:58.861Z,101714.00
2018-10-18T13:13:02.384Z,101712.00
2018-10-18T13:19:06.209Z,101724.00
2018-10-18T13:25:10.629Z,101728.00
2018-10-18T13:31:14.279Z,101721.00
2018-10-18T13:37:18.655Z,101722.00
2018-10-18T13:43:22.156Z,101723.00
2018-10-18T13:49:25.774Z,101714.00
2018-10-18T13:55:29.314Z,101715.00
2018-10-18T14:01:33.428Z,101695.00
2018-10-18T14:07:37.327Z,101694.00
2018-10-18T14:13:40.891Z,101700.00
2018-10-18T14:19:44.955Z,101697.00
2018-10-18T14:25:48.866Z,101690.00
2018-10-18T14:31:53.353Z,101696.00
2018-10-18T14:37:57.072Z,101686.00
2018-10-18T14:44:00.789Z,101688.00
2018-10-18T14:50:05.520Z,101693.00
2018-10-18T14:56:09.021Z,101685.00
2018-10-18T15:02:19.363Z,101691.00
2018-10-18T15:08:23.149Z,101693.00
2018-10-18T15:14:26.815Z,101696.00
2018-10-18T15:20:33.180Z,101704.00
2018-10-18T15:26:37.203Z,101712.00
2018-10-18T15:32:40.687Z,101712.00
2018-10-18T15:38:44.405Z,101711.00
2018-10-18T15:44:48.375Z,101714.00
2018-10-18T15:50:52.945Z,101723.00
2018-10-18T15:56:57.000Z,101727.00
2018-10-18T16:03:01.175Z,101730.00
2018-10-18T16:09:09.359Z,101736.00
2018-10-18T16:15:12.872Z,101738.00
2018-10-18T16:21:16.513Z,101748.00
2018-10-18T16:27:20.055Z,101736.00
2018-10-18T16:33:23.714Z,101750.00
2018-10-18T16:39:27.424Z,101752.00
2018-10-18T16:45:31.049Z,101759.00
2018-10-18T16:51:35.553Z,101759.00
2018-10-18T16:57:39.344Z,101764.00
2018-10-18T17:03:42.865Z,101769.00
2018-10-18T17:09:47.330Z,101763.00
2018-10-18T17:15:51.146Z,101763.00
2018-10-18T17:21:56.133Z,101761.00
2018-10-18T17:28:00.533Z,101769.00
2018-10-18T17:34:04.765Z,101768.00
2018-10-18T17:40:09.079Z,101778.00
2018-10-18T17:46:12.838Z,101782.00
2018-10-18T17:52:16.584Z,101785.00
2018-10-18T17:58:20.234Z,101793.00
2018-10-18T18:04:23.499Z,101794.00
2018-10-18T18:10:27.296Z,101780.00
2018-10-18T18:16:31.738Z,101787.00
2018-10-18T18:22:36.045Z,101790.00
2018-10-18T18:28:40.397Z,101797.00
2018-10-18T18:34:44.372Z,101800.00
2018-10-18T18:40:47.965Z,101799.00
2018-10-18T18:46:51.699Z,101812.00
2018-10-18T18:52:55.257Z,101816.00
2018-10-18T18:58:58.675Z,101820.00
2018-10-18T19:05:02.426Z,101827.00
2018-10-18T19:11:06.576Z,101835.00
2018-10-18T19:17:11.342Z,101841.00
2018-10-18T19:23:15.848Z,101843.00
2018-10-18T19:29:19.486Z,101842.00
2018-10-18T19:35:23.038Z,101845.00
2018-10-18T19:41:27.298Z,101860.00
2018-10-18T19:47:31.180Z,101855.00
2018-10-18T19:53:34.681Z,101864.00
2018-10-18T19:59:38.500Z,101865.00
2018-10-18T20:05:42.057Z,101870.00
2018-10-18T20:11:45.762Z,101865.00
2018-10-18T20:17:49.576Z,101871.00
2018-10-18T20:23:53.414Z,101871.00
2018-10-18T20:29:56.946Z,101875.00
2018-10-18T20:36:00.386Z,101872.00
2018-10-18T20:42:03.926Z,101864.00
2018-10-18T20:48:07.602Z,101855.00
2018-10-18T20:54:11.074Z,101862.00
2018-10-18T21:00:17.663Z,101850.00
2018-10-18T21:06:21.642Z,101856.00
2018-10-18T21:12:25.232Z,101861.00
2018-10-18T21:18:28.789Z,101859.00
2018-10-18T21:24:32.375Z,101859.00
2018-10-18T21:30:36.268Z,101840.00
2018-10-18T21:36:39.708Z,101837.00
2018-10-18T21:42:43.197Z,101836.00
2018-10-18T21:48:47.589Z,101847.00
2018-10-18T21:54:51.606Z,101847.00
2018-10-18T22:00:55.463Z,101851.00
2018-10-18T22:06:59.477Z,101840.00
2018-10-18T22:13:03.687Z,101844.00
2018-10-18T22:19:08.437Z,101847.00
2018-10-18T22:25:11.883Z,101846.00
2018-10-18T22:31:15.680Z,101840.00
2018-10-18T22:37:19.177Z,101825.00
2018-10-18T22:43:23.495Z,101827.00
2018-10-18T22:49:27.391Z,101818.00
2018-10-18T22:55:31.417Z,101822.00
2018-10-18T23:01:35.043Z,101823.00
2018-10-18T23:07:38.746Z,101826.00
2018-10-18T23:13:42.555Z,101816.00
2018-10-18T23:19:45.908Z,101815.00
2018-10-18T23:25:49.548Z,101819.00
2018-10-18T23:31:52.906Z,101826.00
2018-10-18T23:37:56.433Z,101825.00
2018-10-18T23:43:59.801Z,101825.00
2018-10-18T23:50:03.625Z,101808.00
2018-10-18T23:56:07.580Z,101810.00
